sensor_id;sensor_type;location;lat;lon;timestamp;P1;durP1;ratioP1;P2;durP2;ratioP2
47882;SDS011;37739;50.350;7.578;2022-12-18T00:01:15;18.47;;;12.07;;
47882;SDS011;37739;50.350;7.578;2022-12-18T00:03:47;18.87;;;12.87;;
47882;SDS011;37739;50.350;7.578;2022-12-18T00:06:14;17.50;;;12.97;;
47882;SDS011;37739;50.350;7.578;2022-12-18T00:08:43;18.00;;;13.30;;
47882;SDS011;37739;50.350;7.578;2022-12-18T00:11:13;20.70;;;13.67;;
47882;SDS011;37739;50.350;7.578;2022-12-18T00:13:42;20.73;;;13.50;;
47882;SDS011;37739;50.350;7.578;2022-12-18T00:16:10;18.23;;;12.40;;
47882;SDS011;37739;50.350;7.578;2022-12-18T00:18:40;20.80;;;14.00;;
47882;SDS011;37739;50.350;7.578;2022-12-18T00:21:09;18.20;;;12.20;;
47882;SDS011;37739;50.350;7.578;2022-12-18T00:23:36;19.80;;;12.53;;
47882;SDS011;37739;50.350;7.578;2022-12-18T00:26:05;18.47;;;13.60;;
47882;SDS011;37739;50.350;7.578;2022-12-18T00:28:38;23.30;;;14.43;;
47882;SDS011;37739;50.350;7.578;2022-12-18T00:31:07;22.30;;;15.20;;
47882;SDS011;37739;50.350;7.578;2022-12-18T00:33:35;22.30;;;12.93;;
47882;SDS011;37739;50.350;7.578;2022-12-18T00:36:03;22.33;;;14.53;;
47882;SDS011;37739;50.350;7.578;2022-12-18T00:38:33;25.47;;;14.63;;
47882;SDS011;37739;50.350;7.578;2022-12-18T00:41:03;17.30;;;11.90;;
47882;SDS011;37739;50.350;7.578;2022-12-18T00:43:30;24.43;;;15.30;;
47882;SDS011;37739;50.350;7.578;2022-12-18T00:45:55;20.40;;;14.40;;
47882;SDS011;37739;50.350;7.578;2022-12-18T00:48:22;21.83;;;13.80;;
47882;SDS011;37739;50.350;7.578;2022-12-18T00:50:48;21.67;;;14.13;;
47882;SDS011;37739;50.350;7.578;2022-12-18T00:53:14;24.67;;;13.93;;
47882;SDS011;37739;50.350;7.578;2022-12-18T00:55:43;21.30;;;15.13;;
47882;SDS011;37739;50.350;7.578;2022-12-18T00:58:11;12.70;;;8.70;;
47882;SDS011;37739;50.350;7.578;2022-12-18T01:00:38;26.27;;;16.00;;
47882;SDS011;37739;50.350;7.578;2022-12-18T01:03:06;20.20;;;13.57;;
47882;SDS011;37739;50.350;7.578;2022-12-18T01:05:33;20.07;;;12.37;;
47882;SDS011;37739;50.350;7.578;2022-12-18T01:08:01;20.90;;;13.40;;
47882;SDS011;37739;50.350;7.578;2022-12-18T01:10:26;21.17;;;13.03;;
47882;SDS011;37739;50.350;7.578;2022-12-18T01:12:51;25.70;;;15.07;;
47882;SDS011;37739;50.350;7.578;2022-12-18T01:15:17;22.07;;;14.50;;
47882;SDS011;37739;50.350;7.578;2022-12-18T01:17:43;22.20;;;14.07;;
47882;SDS011;37739;50.350;7.578;2022-12-18T01:20:09;19.80;;;13.60;;
47882;SDS011;37739;50.350;7.578;2022-12-18T01:22:36;20.10;;;13.10;;
47882;SDS011;37739;50.350;7.578;2022-12-18T01:25:02;19.10;;;13.87;;
47882;SDS011;37739;50.350;7.578;2022-12-18T01:27:29;16.63;;;11.90;;
47882;SDS011;37739;50.350;7.578;2022-12-18T01:29:57;18.30;;;12.80;;
47882;SDS011;37739;50.350;7.578;2022-12-18T01:32:23;20.40;;;13.77;;
47882;SDS011;37739;50.350;7.578;2022-12-18T01:34:48;20.97;;;14.17;;
47882;SDS011;37739;50.350;7.578;2022-12-18T01:37:16;21.60;;;13.67;;
47882;SDS011;37739;50.350;7.578;2022-12-18T01:39:41;18.23;;;11.47;;
47882;SDS011;37739;50.350;7.578;2022-12-18T01:42:11;22.90;;;13.33;;
47882;SDS011;37739;50.350;7.578;2022-12-18T01:47:31;21.23;;;14.20;;
47882;SDS011;37739;50.350;7.578;2022-12-18T01:50:14;16.20;;;11.47;;
47882;SDS011;37739;50.350;7.578;2022-12-18T01:52:48;18.37;;;12.00;;
47882;SDS011;37739;50.350;7.578;2022-12-18T01:55:21;18.77;;;12.00;;
47882;SDS011;37739;50.350;7.578;2022-12-18T01:57:50;20.57;;;13.57;;
47882;SDS011;37739;50.350;7.578;2022-12-18T02:00:20;19.77;;;12.40;;
47882;SDS011;37739;50.350;7.578;2022-12-18T02:02:46;19.90;;;12.50;;
47882;SDS011;37739;50.350;7.578;2022-12-18T02:05:12;21.37;;;14.10;;
47882;SDS011;37739;50.350;7.578;2022-12-18T02:08:26;21.90;;;14.93;;
47882;SDS011;37739;50.350;7.578;2022-12-18T02:11:05;20.13;;;12.40;;
47882;SDS011;37739;50.350;7.578;2022-12-18T02:18:58;18.67;;;11.10;;
47882;SDS011;37739;50.350;7.578;2022-12-18T02:21:47;23.57;;;13.37;;
47882;SDS011;37739;50.350;7.578;2022-12-18T02:24:45;18.30;;;11.70;;
47882;SDS011;37739;50.350;7.578;2022-12-18T02:27:16;17.13;;;11.60;;
47882;SDS011;37739;50.350;7.578;2022-12-18T02:29:48;19.13;;;13.20;;
47882;SDS011;37739;50.350;7.578;2022-12-18T02:32:19;17.93;;;11.87;;
47882;SDS011;37739;50.350;7.578;2022-12-18T02:34:49;21.50;;;13.33;;
47882;SDS011;37739;50.350;7.578;2022-12-18T02:37:17;20.50;;;12.23;;
47882;SDS011;37739;50.350;7.578;2022-12-18T02:39:46;20.87;;;12.73;;
47882;SDS011;37739;50.350;7.578;2022-12-18T02:42:13;18.97;;;11.83;;
47882;SDS011;37739;50.350;7.578;2022-12-18T02:44:44;15.87;;;10.90;;
47882;SDS011;37739;50.350;7.578;2022-12-18T02:47:17;22.53;;;12.93;;
47882;SDS011;37739;50.350;7.578;2022-12-18T02:55:25;19.37;;;13.30;;
47882;SDS011;37739;50.350;7.578;2022-12-18T03:03:45;18.20;;;12.77;;
47882;SDS011;37739;50.350;7.578;2022-12-18T03:06:29;17.50;;;11.57;;
47882;SDS011;37739;50.350;7.578;2022-12-18T03:08:59;14.80;;;10.20;;
47882;SDS011;37739;50.350;7.578;2022-12-18T03:11:31;16.60;;;11.43;;
47882;SDS011;37739;50.350;7.578;2022-12-18T03:14:21;16.67;;;11.27;;
47882;SDS011;37739;50.350;7.578;2022-12-18T03:16:51;21.60;;;12.17;;
47882;SDS011;37739;50.350;7.578;2022-12-18T03:19:20;15.87;;;10.53;;
47882;SDS011;37739;50.350;7.578;2022-12-18T03:21:51;21.93;;;13.13;;
47882;SDS011;37739;50.350;7.578;2022-12-18T03:24:18;23.37;;;13.20;;
47882;SDS011;37739;50.350;7.578;2022-12-18T03:26:47;20.27;;;13.23;;
47882;SDS011;37739;50.350;7.578;2022-12-18T03:29:30;19.23;;;13.30;;
47882;SDS011;37739;50.350;7.578;2022-12-18T03:32:04;18.27;;;11.73;;
47882;SDS011;37739;50.350;7.578;2022-12-18T03:34:36;17.80;;;11.83;;
47882;SDS011;37739;50.350;7.578;2022-12-18T03:37:07;19.50;;;13.27;;
47882;SDS011;37739;50.350;7.578;2022-12-18T03:39:35;21.20;;;13.20;;
47882;SDS011;37739;50.350;7.578;2022-12-18T03:42:16;21.63;;;13.47;;
47882;SDS011;37739;50.350;7.578;2022-12-18T03:44:58;23.23;;;13.53;;
47882;SDS011;37739;50.350;7.578;2022-12-18T03:50:08;21.50;;;12.80;;
47882;SDS011;37739;50.350;7.578;2022-12-18T03:52:36;18.40;;;12.10;;
47882;SDS011;37739;50.350;7.578;2022-12-18T03:55:07;17.53;;;11.43;;
47882;SDS011;37739;50.350;7.578;2022-12-18T03:57:36;18.20;;;11.00;;
47882;SDS011;37739;50.350;7.578;2022-12-18T04:00:05;25.63;;;15.83;;
47882;SDS011;37739;50.350;7.578;2022-12-18T04:02:36;23.57;;;13.40;;
47882;SDS011;37739;50.350;7.578;2022-12-18T04:05:08;19.50;;;12.53;;
47882;SDS011;37739;50.350;7.578;2022-12-18T04:07:35;19.00;;;11.70;;
47882;SDS011;37739;50.350;7.578;2022-12-18T04:10:02;23.40;;;14.90;;
47882;SDS011;37739;50.350;7.578;2022-12-18T04:12:29;23.47;;;14.97;;
47882;SDS011;37739;50.350;7.578;2022-12-18T04:14:55;19.23;;;11.70;;
47882;SDS011;37739;50.350;7.578;2022-12-18T04:17:20;11.20;;;8.90;;
47882;SDS011;37739;50.350;7.578;2022-12-18T04:19:49;16.07;;;10.43;;
47882;SDS011;37739;50.350;7.578;2022-12-18T04:22:17;16.67;;;11.50;;
47882;SDS011;37739;50.350;7.578;2022-12-18T04:24:42;19.50;;;12.70;;
47882;SDS011;37739;50.350;7.578;2022-12-18T04:27:08;21.73;;;12.70;;
47882;SDS011;37739;50.350;7.578;2022-12-18T04:29:33;17.93;;;11.63;;
47882;SDS011;37739;50.350;7.578;2022-12-18T04:32:01;20.57;;;11.27;;
47882;SDS011;37739;50.350;7.578;2022-12-18T04:34:28;17.70;;;12.50;;
47882;SDS011;37739;50.350;7.578;2022-12-18T04:36:56;20.53;;;11.27;;
47882;SDS011;37739;50.350;7.578;2022-12-18T04:39:21;20.60;;;13.27;;
47882;SDS011;37739;50.350;7.578;2022-12-18T04:41:49;20.13;;;12.23;;
47882;SDS011;37739;50.350;7.578;2022-12-18T04:44:16;18.37;;;12.40;;
47882;SDS011;37739;50.350;7.578;2022-12-18T04:46:44;21.83;;;13.23;;
47882;SDS011;37739;50.350;7.578;2022-12-18T04:49:09;18.83;;;12.50;;
47882;SDS011;37739;50.350;7.578;2022-12-18T04:51:38;23.03;;;14.40;;
47882;SDS011;37739;50.350;7.578;2022-12-18T04:54:03;18.07;;;12.37;;
47882;SDS011;37739;50.350;7.578;2022-12-18T04:56:31;19.30;;;13.30;;
47882;SDS011;37739;50.350;7.578;2022-12-18T04:59:01;19.30;;;12.40;;
47882;SDS011;37739;50.350;7.578;2022-12-18T05:01:28;20.40;;;13.43;;
47882;SDS011;37739;50.350;7.578;2022-12-18T05:03:54;21.77;;;12.40;;
47882;SDS011;37739;50.350;7.578;2022-12-18T05:06:19;18.73;;;12.97;;
47882;SDS011;37739;50.350;7.578;2022-12-18T05:08:47;14.87;;;10.93;;
47882;SDS011;37739;50.350;7.578;2022-12-18T05:11:13;15.70;;;10.23;;
47882;SDS011;37739;50.350;7.578;2022-12-18T05:13:40;13.37;;;9.67;;
47882;SDS011;37739;50.350;7.578;2022-12-18T05:16:08;19.40;;;11.17;;
47882;SDS011;37739;50.350;7.578;2022-12-18T05:18:34;17.50;;;11.00;;
47882;SDS011;37739;50.350;7.578;2022-12-18T05:20:59;16.83;;;11.13;;
47882;SDS011;37739;50.350;7.578;2022-12-18T05:23:25;19.57;;;12.30;;
47882;SDS011;37739;50.350;7.578;2022-12-18T05:25:54;17.00;;;12.03;;
47882;SDS011;37739;50.350;7.578;2022-12-18T05:28:27;14.77;;;10.77;;
47882;SDS011;37739;50.350;7.578;2022-12-18T05:30:54;18.17;;;13.10;;
47882;SDS011;37739;50.350;7.578;2022-12-18T05:33:26;17.33;;;11.53;;
47882;SDS011;37739;50.350;7.578;2022-12-18T05:35:53;18.40;;;13.77;;
47882;SDS011;37739;50.350;7.578;2022-12-18T05:38:21;19.30;;;13.17;;
47882;SDS011;37739;50.350;7.578;2022-12-18T05:40:47;16.33;;;11.27;;
47882;SDS011;37739;50.350;7.578;2022-12-18T05:43:13;18.83;;;12.53;;
47882;SDS011;37739;50.350;7.578;2022-12-18T05:45:39;20.13;;;12.83;;
47882;SDS011;37739;50.350;7.578;2022-12-18T05:48:05;18.47;;;11.07;;
47882;SDS011;37739;50.350;7.578;2022-12-18T05:50:35;20.47;;;13.23;;
47882;SDS011;37739;50.350;7.578;2022-12-18T05:53:02;17.03;;;11.57;;
47882;SDS011;37739;50.350;7.578;2022-12-18T05:55:33;19.60;;;12.67;;
47882;SDS011;37739;50.350;7.578;2022-12-18T05:58:02;25.63;;;15.60;;
47882;SDS011;37739;50.350;7.578;2022-12-18T06:00:29;16.80;;;11.00;;
47882;SDS011;37739;50.350;7.578;2022-12-18T06:02:59;16.87;;;12.30;;
47882;SDS011;37739;50.350;7.578;2022-12-18T06:05:29;20.03;;;12.33;;
47882;SDS011;37739;50.350;7.578;2022-12-18T06:08:00;17.50;;;12.07;;
47882;SDS011;37739;50.350;7.578;2022-12-18T06:10:28;22.43;;;12.40;;
47882;SDS011;37739;50.350;7.578;2022-12-18T06:12:53;17.43;;;10.57;;
47882;SDS011;37739;50.350;7.578;2022-12-18T06:15:19;23.07;;;12.63;;
47882;SDS011;37739;50.350;7.578;2022-12-18T06:17:46;22.60;;;12.77;;
47882;SDS011;37739;50.350;7.578;2022-12-18T06:20:14;20.60;;;13.50;;
47882;SDS011;37739;50.350;7.578;2022-12-18T06:22:42;15.03;;;9.50;;
47882;SDS011;37739;50.350;7.578;2022-12-18T06:25:07;22.60;;;12.50;;
47882;SDS011;37739;50.350;7.578;2022-12-18T06:27:35;21.93;;;12.77;;
47882;SDS011;37739;50.350;7.578;2022-12-18T06:30:03;35.17;;;19.70;;
47882;SDS011;37739;50.350;7.578;2022-12-18T06:32:31;34.20;;;17.63;;
47882;SDS011;37739;50.350;7.578;2022-12-18T06:34:58;26.63;;;15.30;;
47882;SDS011;37739;50.350;7.578;2022-12-18T06:37:24;25.93;;;16.43;;
47882;SDS011;37739;50.350;7.578;2022-12-18T06:39:53;24.60;;;16.13;;
47882;SDS011;37739;50.350;7.578;2022-12-18T06:42:21;23.23;;;13.87;;
47882;SDS011;37739;50.350;7.578;2022-12-18T06:44:46;26.07;;;15.37;;
47882;SDS011;37739;50.350;7.578;2022-12-18T06:47:12;21.07;;;13.87;;
47882;SDS011;37739;50.350;7.578;2022-12-18T06:49:39;26.23;;;16.13;;
47882;SDS011;37739;50.350;7.578;2022-12-18T06:52:05;22.83;;;14.70;;
47882;SDS011;37739;50.350;7.578;2022-12-18T06:54:33;20.40;;;14.30;;
47882;SDS011;37739;50.350;7.578;2022-12-18T06:57:02;19.30;;;13.13;;
47882;SDS011;37739;50.350;7.578;2022-12-18T06:59:32;21.33;;;14.03;;
47882;SDS011;37739;50.350;7.578;2022-12-18T07:01:58;23.27;;;13.97;;
47882;SDS011;37739;50.350;7.578;2022-12-18T07:04:32;19.90;;;13.90;;
47882;SDS011;37739;50.350;7.578;2022-12-18T07:07:00;26.20;;;14.20;;
47882;SDS011;37739;50.350;7.578;2022-12-18T07:09:27;22.37;;;15.23;;
47882;SDS011;37739;50.350;7.578;2022-12-18T07:11:55;18.33;;;12.20;;
47882;SDS011;37739;50.350;7.578;2022-12-18T07:14:20;18.43;;;12.27;;
47882;SDS011;37739;50.350;7.578;2022-12-18T07:16:45;19.10;;;12.33;;
47882;SDS011;37739;50.350;7.578;2022-12-18T07:19:11;21.83;;;12.83;;
47882;SDS011;37739;50.350;7.578;2022-12-18T07:21:36;22.83;;;14.47;;
47882;SDS011;37739;50.350;7.578;2022-12-18T07:24:02;18.07;;;11.00;;
47882;SDS011;37739;50.350;7.578;2022-12-18T07:26:32;20.90;;;12.83;;
47882;SDS011;37739;50.350;7.578;2022-12-18T07:28:57;17.50;;;11.70;;
47882;SDS011;37739;50.350;7.578;2022-12-18T07:31:23;20.37;;;12.77;;
47882;SDS011;37739;50.350;7.578;2022-12-18T07:33:49;18.83;;;12.90;;
47882;SDS011;37739;50.350;7.578;2022-12-18T07:36:15;16.63;;;12.20;;
47882;SDS011;37739;50.350;7.578;2022-12-18T07:38:40;17.60;;;12.30;;
47882;SDS011;37739;50.350;7.578;2022-12-18T07:41:11;22.73;;;13.87;;
47882;SDS011;37739;50.350;7.578;2022-12-18T07:43:38;20.60;;;13.63;;
47882;SDS011;37739;50.350;7.578;2022-12-18T07:46:05;24.70;;;13.93;;
47882;SDS011;37739;50.350;7.578;2022-12-18T07:48:33;20.80;;;14.63;;
47882;SDS011;37739;50.350;7.578;2022-12-18T07:51:05;20.37;;;14.40;;
47882;SDS011;37739;50.350;7.578;2022-12-18T07:53:36;23.43;;;15.97;;
47882;SDS011;37739;50.350;7.578;2022-12-18T07:56:08;27.33;;;19.30;;
47882;SDS011;37739;50.350;7.578;2022-12-18T07:58:35;26.33;;;16.73;;
47882;SDS011;37739;50.350;7.578;2022-12-18T08:03:29;22.30;;;15.70;;
47882;SDS011;37739;50.350;7.578;2022-12-18T08:05:58;23.17;;;14.70;;
47882;SDS011;37739;50.350;7.578;2022-12-18T08:08:27;23.80;;;15.40;;
47882;SDS011;37739;50.350;7.578;2022-12-18T08:10:56;25.70;;;16.03;;
47882;SDS011;37739;50.350;7.578;2022-12-18T08:13:24;24.10;;;14.73;;
47882;SDS011;37739;50.350;7.578;2022-12-18T08:15:59;23.73;;;15.40;;
47882;SDS011;37739;50.350;7.578;2022-12-18T08:18:27;20.03;;;14.60;;
47882;SDS011;37739;50.350;7.578;2022-12-18T08:20:55;21.40;;;14.47;;
47882;SDS011;37739;50.350;7.578;2022-12-18T08:23:20;23.57;;;15.57;;
47882;SDS011;37739;50.350;7.578;2022-12-18T08:25:46;24.50;;;15.30;;
47882;SDS011;37739;50.350;7.578;2022-12-18T08:28:12;22.37;;;15.40;;
47882;SDS011;37739;50.350;7.578;2022-12-18T08:30:37;24.33;;;14.60;;
47882;SDS011;37739;50.350;7.578;2022-12-18T08:33:05;21.23;;;15.33;;
47882;SDS011;37739;50.350;7.578;2022-12-18T08:35:34;22.13;;;13.97;;
47882;SDS011;37739;50.350;7.578;2022-12-18T08:38:01;21.67;;;14.10;;
47882;SDS011;37739;50.350;7.578;2022-12-18T08:40:26;21.13;;;13.43;;
47882;SDS011;37739;50.350;7.578;2022-12-18T08:42:51;21.50;;;14.40;;
47882;SDS011;37739;50.350;7.578;2022-12-18T08:45:46;24.40;;;13.67;;
47882;SDS011;37739;50.350;7.578;2022-12-18T08:48:11;20.23;;;14.20;;
47882;SDS011;37739;50.350;7.578;2022-12-18T08:50:36;21.70;;;13.80;;
47882;SDS011;37739;50.350;7.578;2022-12-18T08:53:04;21.00;;;13.17;;
47882;SDS011;37739;50.350;7.578;2022-12-18T08:55:29;24.60;;;14.40;;
47882;SDS011;37739;50.350;7.578;2022-12-18T08:57:54;18.87;;;12.10;;
47882;SDS011;37739;50.350;7.578;2022-12-18T09:00:24;23.70;;;15.63;;
47882;SDS011;37739;50.350;7.578;2022-12-18T09:02:50;21.80;;;14.07;;
47882;SDS011;37739;50.350;7.578;2022-12-18T09:05:15;25.13;;;14.93;;
47882;SDS011;37739;50.350;7.578;2022-12-18T09:07:45;26.17;;;15.67;;
47882;SDS011;37739;50.350;7.578;2022-12-18T09:10:10;21.53;;;12.97;;
47882;SDS011;37739;50.350;7.578;2022-12-18T09:12:36;21.70;;;15.57;;
47882;SDS011;37739;50.350;7.578;2022-12-18T09:15:01;23.27;;;13.60;;
47882;SDS011;37739;50.350;7.578;2022-12-18T09:17:29;17.17;;;11.70;;
47882;SDS011;37739;50.350;7.578;2022-12-18T09:19:54;20.47;;;13.57;;
47882;SDS011;37739;50.350;7.578;2022-12-18T09:22:20;22.37;;;13.90;;
47882;SDS011;37739;50.350;7.578;2022-12-18T09:24:45;25.00;;;14.20;;
47882;SDS011;37739;50.350;7.578;2022-12-18T09:27:12;24.10;;;14.83;;
47882;SDS011;37739;50.350;7.578;2022-12-18T09:29:38;23.77;;;15.20;;
47882;SDS011;37739;50.350;7.578;2022-12-18T09:32:03;19.90;;;12.97;;
47882;SDS011;37739;50.350;7.578;2022-12-18T09:34:31;19.23;;;13.80;;
47882;SDS011;37739;50.350;7.578;2022-12-18T09:36:58;21.23;;;13.37;;
47882;SDS011;37739;50.350;7.578;2022-12-18T09:39:26;22.77;;;14.87;;
47882;SDS011;37739;50.350;7.578;2022-12-18T09:41:55;25.30;;;14.60;;
47882;SDS011;37739;50.350;7.578;2022-12-18T09:44:36;19.10;;;12.70;;
47882;SDS011;37739;50.350;7.578;2022-12-18T09:47:08;23.73;;;14.57;;
47882;SDS011;37739;50.350;7.578;2022-12-18T09:49:43;18.97;;;13.80;;
47882;SDS011;37739;50.350;7.578;2022-12-18T09:52:30;21.50;;;15.43;;
47882;SDS011;37739;50.350;7.578;2022-12-18T09:57:53;21.13;;;14.33;;
47882;SDS011;37739;50.350;7.578;2022-12-18T10:00:23;21.17;;;14.43;;
47882;SDS011;37739;50.350;7.578;2022-12-18T10:02:51;23.13;;;15.40;;
47882;SDS011;37739;50.350;7.578;2022-12-18T10:05:27;21.73;;;15.37;;
47882;SDS011;37739;50.350;7.578;2022-12-18T10:10:48;23.77;;;15.47;;
47882;SDS011;37739;50.350;7.578;2022-12-18T10:16:09;22.90;;;16.60;;
47882;SDS011;37739;50.350;7.578;2022-12-18T10:19:01;14.27;;;10.50;;
47882;SDS011;37739;50.350;7.578;2022-12-18T10:27:10;30.10;;;20.87;;
47882;SDS011;37739;50.350;7.578;2022-12-18T10:29:47;23.17;;;16.20;;
47882;SDS011;37739;50.350;7.578;2022-12-18T10:32:20;20.77;;;14.77;;
47882;SDS011;37739;50.350;7.578;2022-12-18T10:34:52;24.10;;;15.90;;
47882;SDS011;37739;50.350;7.578;2022-12-18T10:37:21;22.07;;;15.73;;
47882;SDS011;37739;50.350;7.578;2022-12-18T10:40:07;18.63;;;13.80;;
47882;SDS011;37739;50.350;7.578;2022-12-18T10:42:40;21.80;;;16.33;;
47882;SDS011;37739;50.350;7.578;2022-12-18T10:45:16;23.00;;;16.53;;
47882;SDS011;37739;50.350;7.578;2022-12-18T10:47:45;23.67;;;15.97;;
47882;SDS011;37739;50.350;7.578;2022-12-18T10:50:19;26.20;;;17.20;;
47882;SDS011;37739;50.350;7.578;2022-12-18T10:52:56;24.70;;;17.53;;
47882;SDS011;37739;50.350;7.578;2022-12-18T10:55:27;27.87;;;19.67;;
47882;SDS011;37739;50.350;7.578;2022-12-18T10:58:12;29.03;;;19.83;;
47882;SDS011;37739;50.350;7.578;2022-12-18T11:01:12;31.27;;;18.83;;
47882;SDS011;37739;50.350;7.578;2022-12-18T11:04:07;27.03;;;17.60;;
47882;SDS011;37739;50.350;7.578;2022-12-18T11:06:33;22.47;;;15.40;;
47882;SDS011;37739;50.350;7.578;2022-12-18T11:09:03;25.67;;;19.23;;
47882;SDS011;37739;50.350;7.578;2022-12-18T11:11:31;20.07;;;15.07;;
47882;SDS011;37739;50.350;7.578;2022-12-18T11:14:05;26.00;;;18.23;;
47882;SDS011;37739;50.350;7.578;2022-12-18T11:16:44;33.47;;;22.07;;
47882;SDS011;37739;50.350;7.578;2022-12-18T11:19:24;28.40;;;20.40;;
47882;SDS011;37739;50.350;7.578;2022-12-18T11:22:26;25.83;;;19.33;;
47882;SDS011;37739;50.350;7.578;2022-12-18T11:27:47;21.10;;;14.93;;
47882;SDS011;37739;50.350;7.578;2022-12-18T11:30:31;47.53;;;32.80;;
47882;SDS011;37739;50.350;7.578;2022-12-18T11:40:51;22.37;;;16.73;;
47882;SDS011;37739;50.350;7.578;2022-12-18T11:43:28;23.03;;;17.20;;
47882;SDS011;37739;50.350;7.578;2022-12-18T11:46:02;17.13;;;13.83;;
47882;SDS011;37739;50.350;7.578;2022-12-18T11:48:44;24.77;;;17.37;;
47882;SDS011;37739;50.350;7.578;2022-12-18T11:51:18;21.40;;;15.77;;
47882;SDS011;37739;50.350;7.578;2022-12-18T11:53:54;26.07;;;18.27;;
47882;SDS011;37739;50.350;7.578;2022-12-18T11:58:52;23.37;;;16.63;;
47882;SDS011;37739;50.350;7.578;2022-12-18T12:04:06;22.20;;;17.30;;
47882;SDS011;37739;50.350;7.578;2022-12-18T12:09:29;23.63;;;16.23;;
47882;SDS011;37739;50.350;7.578;2022-12-18T12:33:31;29.20;;;19.30;;
47882;SDS011;37739;50.350;7.578;2022-12-18T12:39:06;25.87;;;17.37;;
47882;SDS011;37739;50.350;7.578;2022-12-18T12:41:37;27.80;;;19.20;;
47882;SDS011;37739;50.350;7.578;2022-12-18T12:44:27;25.40;;;18.70;;
47882;SDS011;37739;50.350;7.578;2022-12-18T12:46:56;31.23;;;21.47;;
47882;SDS011;37739;50.350;7.578;2022-12-18T12:49:29;28.60;;;20.73;;
47882;SDS011;37739;50.350;7.578;2022-12-18T12:52:00;28.70;;;20.37;;
47882;SDS011;37739;50.350;7.578;2022-12-18T12:54:35;26.73;;;19.07;;
47882;SDS011;37739;50.350;7.578;2022-12-18T12:57:09;24.47;;;18.80;;
47882;SDS011;37739;50.350;7.578;2022-12-18T12:59:49;26.20;;;20.30;;
47882;SDS011;37739;50.350;7.578;2022-12-18T13:05:09;29.40;;;18.40;;
47882;SDS011;37739;50.350;7.578;2022-12-18T13:07:52;24.63;;;17.50;;
47882;SDS011;37739;50.350;7.578;2022-12-18T13:10:24;25.53;;;17.10;;
47882;SDS011;37739;50.350;7.578;2022-12-18T13:15:41;24.93;;;17.33;;
47882;SDS011;37739;50.350;7.578;2022-12-18T13:20:35;24.47;;;18.27;;
47882;SDS011;37739;50.350;7.578;2022-12-18T13:26:31;27.93;;;19.93;;
47882;SDS011;37739;50.350;7.578;2022-12-18T13:34:27;26.63;;;17.10;;
47882;SDS011;37739;50.350;7.578;2022-12-18T13:36:57;24.80;;;17.00;;
47882;SDS011;37739;50.350;7.578;2022-12-18T13:39:57;24.17;;;16.33;;
47882;SDS011;37739;50.350;7.578;2022-12-18T13:45:43;24.83;;;18.13;;
47882;SDS011;37739;50.350;7.578;2022-12-18T13:48:18;22.50;;;16.43;;
47882;SDS011;37739;50.350;7.578;2022-12-18T13:50:57;31.50;;;20.93;;
47882;SDS011;37739;50.350;7.578;2022-12-18T13:53:36;25.37;;;18.10;;
47882;SDS011;37739;50.350;7.578;2022-12-18T13:56:07;23.97;;;17.60;;
47882;SDS011;37739;50.350;7.578;2022-12-18T13:58:40;26.70;;;19.40;;
47882;SDS011;37739;50.350;7.578;2022-12-18T14:01:10;21.70;;;17.00;;
47882;SDS011;37739;50.350;7.578;2022-12-18T14:03:46;23.57;;;16.73;;
47882;SDS011;37739;50.350;7.578;2022-12-18T14:06:33;24.03;;;17.70;;
47882;SDS011;37739;50.350;7.578;2022-12-18T14:08:59;24.87;;;18.27;;
47882;SDS011;37739;50.350;7.578;2022-12-18T14:11:25;25.80;;;20.50;;
47882;SDS011;37739;50.350;7.578;2022-12-18T14:13:51;28.50;;;20.30;;
47882;SDS011;37739;50.350;7.578;2022-12-18T14:16:17;30.17;;;19.90;;
47882;SDS011;37739;50.350;7.578;2022-12-18T14:18:57;30.90;;;20.93;;
47882;SDS011;37739;50.350;7.578;2022-12-18T14:21:27;25.37;;;18.73;;
47882;SDS011;37739;50.350;7.578;2022-12-18T14:24:12;32.83;;;19.87;;
47882;SDS011;37739;50.350;7.578;2022-12-18T14:26:41;24.77;;;18.07;;
47882;SDS011;37739;50.350;7.578;2022-12-18T14:31:45;24.27;;;18.00;;
47882;SDS011;37739;50.350;7.578;2022-12-18T14:34:28;24.07;;;17.53;;
47882;SDS011;37739;50.350;7.578;2022-12-18T14:36:53;28.80;;;20.00;;
47882;SDS011;37739;50.350;7.578;2022-12-18T14:39:21;30.87;;;22.40;;
47882;SDS011;37739;50.350;7.578;2022-12-18T14:41:48;26.77;;;19.43;;
47882;SDS011;37739;50.350;7.578;2022-12-18T14:44:14;24.70;;;18.97;;
47882;SDS011;37739;50.350;7.578;2022-12-18T14:46:42;30.07;;;20.53;;
47882;SDS011;37739;50.350;7.578;2022-12-18T14:49:18;23.27;;;17.20;;
47882;SDS011;37739;50.350;7.578;2022-12-18T14:51:52;27.07;;;18.70;;
47882;SDS011;37739;50.350;7.578;2022-12-18T14:54:19;29.73;;;21.10;;
47882;SDS011;37739;50.350;7.578;2022-12-18T14:56:56;24.80;;;19.00;;
47882;SDS011;37739;50.350;7.578;2022-12-18T14:59:32;31.57;;;21.90;;
47882;SDS011;37739;50.350;7.578;2022-12-18T15:04:39;32.20;;;21.20;;
47882;SDS011;37739;50.350;7.578;2022-12-18T15:07:12;33.90;;;23.23;;
47882;SDS011;37739;50.350;7.578;2022-12-18T15:09:39;32.87;;;23.00;;
47882;SDS011;37739;50.350;7.578;2022-12-18T15:12:32;35.23;;;23.17;;
47882;SDS011;37739;50.350;7.578;2022-12-18T15:15:01;30.10;;;22.27;;
47882;SDS011;37739;50.350;7.578;2022-12-18T15:17:27;33.43;;;23.83;;
47882;SDS011;37739;50.350;7.578;2022-12-18T15:19:53;34.40;;;22.97;;
47882;SDS011;37739;50.350;7.578;2022-12-18T15:22:29;31.67;;;22.87;;
47882;SDS011;37739;50.350;7.578;2022-12-18T15:25:02;33.60;;;24.53;;
47882;SDS011;37739;50.350;7.578;2022-12-18T15:27:47;32.40;;;23.37;;
47882;SDS011;37739;50.350;7.578;2022-12-18T15:32:45;33.93;;;23.50;;
47882;SDS011;37739;50.350;7.578;2022-12-18T15:35:13;34.67;;;24.57;;
47882;SDS011;37739;50.350;7.578;2022-12-18T15:37:47;35.97;;;25.20;;
47882;SDS011;37739;50.350;7.578;2022-12-18T15:40:16;33.57;;;24.10;;
47882;SDS011;37739;50.350;7.578;2022-12-18T15:42:45;32.03;;;19.93;;
47882;SDS011;37739;50.350;7.578;2022-12-18T15:45:32;32.70;;;23.10;;
47882;SDS011;37739;50.350;7.578;2022-12-18T15:47:58;34.63;;;23.67;;
47882;SDS011;37739;50.350;7.578;2022-12-18T15:50:24;34.07;;;22.33;;
47882;SDS011;37739;50.350;7.578;2022-12-18T15:52:53;30.63;;;22.67;;
47882;SDS011;37739;50.350;7.578;2022-12-18T15:55:24;39.90;;;24.60;;
47882;SDS011;37739;50.350;7.578;2022-12-18T15:58:08;35.27;;;24.10;;
47882;SDS011;37739;50.350;7.578;2022-12-18T16:00:37;37.37;;;24.93;;
47882;SDS011;37739;50.350;7.578;2022-12-18T16:03:05;37.73;;;26.00;;
47882;SDS011;37739;50.350;7.578;2022-12-18T16:05:33;33.80;;;23.27;;
47882;SDS011;37739;50.350;7.578;2022-12-18T16:07:58;31.50;;;20.10;;
47882;SDS011;37739;50.350;7.578;2022-12-18T16:10:26;38.67;;;23.47;;
47882;SDS011;37739;50.350;7.578;2022-12-18T16:12:52;35.60;;;24.30;;
47882;SDS011;37739;50.350;7.578;2022-12-18T16:15:17;36.10;;;23.83;;
47882;SDS011;37739;50.350;7.578;2022-12-18T16:17:43;28.03;;;20.67;;
47882;SDS011;37739;50.350;7.578;2022-12-18T16:20:16;33.67;;;22.63;;
47882;SDS011;37739;50.350;7.578;2022-12-18T16:22:43;32.17;;;20.00;;
47882;SDS011;37739;50.350;7.578;2022-12-18T16:25:20;28.17;;;19.77;;
47882;SDS011;37739;50.350;7.578;2022-12-18T16:27:53;29.83;;;21.13;;
47882;SDS011;37739;50.350;7.578;2022-12-18T16:30:29;30.60;;;21.53;;